sensor_id;sensor_type;location;lat;lon;timestamp;P1;durP1;ratioP1;P2;durP2;ratioP2
18711;SDS011;9485;49.386;8.674;2023-04-24T00:03:32;1.10;;;0.70;;
18711;SDS011;9485;49.386;8.674;2023-04-24T00:08:53;0.70;;;0.70;;
18711;SDS011;9485;49.386;8.674;2023-04-24T00:14:15;0.80;;;0.80;;
18711;SDS011;9485;49.386;8.674;2023-04-24T00:19:36;1.33;;;0.83;;
18711;SDS011;9485;49.386;8.674;2023-04-24T00:24:56;1.20;;;0.83;;
18711;SDS011;9485;49.386;8.674;2023-04-24T00:30:19;1.90;;;0.90;;
18711;SDS011;9485;49.386;8.674;2023-04-24T00:35:40;1.00;;;0.80;;
18711;SDS011;9485;49.386;8.674;2023-04-24T00:41:00;1.37;;;0.90;;
18711;SDS011;9485;49.386;8.674;2023-04-24T00:46:23;1.60;;;1.03;;
18711;SDS011;9485;49.386;8.674;2023-04-24T00:51:44;1.77;;;0.73;;
18711;SDS011;9485;49.386;8.674;2023-04-24T00:57:05;1.20;;;1.10;;
18711;SDS011;9485;49.386;8.674;2023-04-24T01:02:27;1.27;;;0.80;;
18711;SDS011;9485;49.386;8.674;2023-04-24T01:07:48;2.17;;;1.00;;
18711;SDS011;9485;49.386;8.674;2023-04-24T01:13:08;1.50;;;0.90;;
18711;SDS011;9485;49.386;8.674;2023-04-24T01:18:31;1.60;;;0.90;;
18711;SDS011;9485;49.386;8.674;2023-04-24T01:23:54;0.97;;;0.80;;
18711;SDS011;9485;49.386;8.674;2023-04-24T01:29:15;1.10;;;1.00;;
18711;SDS011;9485;49.386;8.674;2023-04-24T01:34:36;0.77;;;0.77;;
18711;SDS011;9485;49.386;8.674;2023-04-24T01:39:59;1.30;;;0.90;;
18711;SDS011;9485;49.386;8.674;2023-04-24T01:45:20;3.03;;;1.00;;
18711;SDS011;9485;49.386;8.674;2023-04-24T01:50:41;1.23;;;1.00;;
18711;SDS011;9485;49.386;8.674;2023-04-24T01:56:06;1.63;;;0.93;;
18711;SDS011;9485;49.386;8.674;2023-04-24T02:01:26;1.43;;;0.80;;
18711;SDS011;9485;49.386;8.674;2023-04-24T02:06:47;0.77;;;0.77;;
18711;SDS011;9485;49.386;8.674;2023-04-24T02:12:09;0.90;;;0.90;;
18711;SDS011;9485;49.386;8.674;2023-04-24T02:17:29;1.63;;;0.90;;
18711;SDS011;9485;49.386;8.674;2023-04-24T02:22:50;1.47;;;0.90;;
18711;SDS011;9485;49.386;8.674;2023-04-24T02:28:12;1.63;;;0.77;;
18711;SDS011;9485;49.386;8.674;2023-04-24T02:33:33;3.47;;;1.00;;
18711;SDS011;9485;49.386;8.674;2023-04-24T02:38:54;0.73;;;0.73;;
18711;SDS011;9485;49.386;8.674;2023-04-24T02:44:15;1.70;;;0.90;;
18711;SDS011;9485;49.386;8.674;2023-04-24T02:49:37;1.57;;;1.00;;
18711;SDS011;9485;49.386;8.674;2023-04-24T02:54:57;1.20;;;0.83;;
18711;SDS011;9485;49.386;8.674;2023-04-24T03:00:19;1.50;;;1.40;;
18711;SDS011;9485;49.386;8.674;2023-04-24T03:05:41;1.90;;;0.90;;
18711;SDS011;9485;49.386;8.674;2023-04-24T03:11:02;0.83;;;0.80;;
18711;SDS011;9485;49.386;8.674;2023-04-24T03:16:24;3.13;;;1.33;;
18711;SDS011;9485;49.386;8.674;2023-04-24T03:21:47;1.93;;;1.13;;
18711;SDS011;9485;49.386;8.674;2023-04-24T03:27:09;2.53;;;1.17;;
18711;SDS011;9485;49.386;8.674;2023-04-24T03:32:44;1.27;;;1.10;;
18711;SDS011;9485;49.386;8.674;2023-04-24T03:38:08;1.13;;;1.03;;
18711;SDS011;9485;49.386;8.674;2023-04-24T03:43:35;1.70;;;1.37;;
18711;SDS011;9485;49.386;8.674;2023-04-24T03:48:58;1.53;;;1.43;;
18711;SDS011;9485;49.386;8.674;2023-04-24T03:54:23;2.10;;;1.47;;
18711;SDS011;9485;49.386;8.674;2023-04-24T03:59:46;1.67;;;1.57;;
18711;SDS011;9485;49.386;8.674;2023-04-24T04:05:12;1.60;;;1.50;;
18711;SDS011;9485;49.386;8.674;2023-04-24T04:10:34;1.47;;;1.37;;
18711;SDS011;9485;49.386;8.674;2023-04-24T04:15:57;1.87;;;1.57;;
18711;SDS011;9485;49.386;8.674;2023-04-24T04:21:19;1.70;;;1.50;;
18711;SDS011;9485;49.386;8.674;2023-04-24T04:26:42;1.57;;;1.47;;
18711;SDS011;9485;49.386;8.674;2023-04-24T04:32:05;2.03;;;1.83;;
18711;SDS011;9485;49.386;8.674;2023-04-24T04:37:28;1.83;;;1.60;;
18711;SDS011;9485;49.386;8.674;2023-04-24T04:43:01;2.43;;;1.90;;
18711;SDS011;9485;49.386;8.674;2023-04-24T04:48:27;4.30;;;1.90;;
18711;SDS011;9485;49.386;8.674;2023-04-24T04:53:53;2.10;;;1.83;;
18711;SDS011;9485;49.386;8.674;2023-04-24T04:59:15;4.70;;;2.20;;
18711;SDS011;9485;49.386;8.674;2023-04-24T05:04:36;2.47;;;2.17;;
18711;SDS011;9485;49.386;8.674;2023-04-24T05:09:58;4.40;;;2.07;;
18711;SDS011;9485;49.386;8.674;2023-04-24T05:15:18;2.20;;;2.00;;
18711;SDS011;9485;49.386;8.674;2023-04-24T05:20:39;2.97;;;1.93;;
18711;SDS011;9485;49.386;8.674;2023-04-24T05:26:03;3.57;;;2.67;;
18711;SDS011;9485;49.386;8.674;2023-04-24T05:31:24;3.33;;;3.03;;
18711;SDS011;9485;49.386;8.674;2023-04-24T05:36:47;3.43;;;3.13;;
18711;SDS011;9485;49.386;8.674;2023-04-24T05:42:10;3.13;;;2.83;;
18711;SDS011;9485;49.386;8.674;2023-04-24T05:47:32;3.53;;;3.17;;
18711;SDS011;9485;49.386;8.674;2023-04-24T05:52:53;4.47;;;3.10;;
18711;SDS011;9485;49.386;8.674;2023-04-24T05:58:20;3.47;;;3.10;;
18711;SDS011;9485;49.386;8.674;2023-04-24T06:03:41;5.17;;;3.80;;
18711;SDS011;9485;49.386;8.674;2023-04-24T06:09:03;3.93;;;3.27;;
18711;SDS011;9485;49.386;8.674;2023-04-24T06:14:25;3.40;;;3.00;;
18711;SDS011;9485;49.386;8.674;2023-04-24T06:20:05;4.33;;;3.27;;
18711;SDS011;9485;49.386;8.674;2023-04-24T06:25:27;4.60;;;3.00;;
18711;SDS011;9485;49.386;8.674;2023-04-24T06:30:50;4.87;;;3.23;;
18711;SDS011;9485;49.386;8.674;2023-04-24T06:36:11;4.73;;;3.23;;
18711;SDS011;9485;49.386;8.674;2023-04-24T06:41:33;3.23;;;2.87;;
18711;SDS011;9485;49.386;8.674;2023-04-24T06:46:57;3.10;;;2.80;;
18711;SDS011;9485;49.386;8.674;2023-04-24T06:52:18;4.00;;;2.70;;
18711;SDS011;9485;49.386;8.674;2023-04-24T06:57:40;3.37;;;2.77;;
18711;SDS011;9485;49.386;8.674;2023-04-24T07:03:03;3.03;;;2.80;;
18711;SDS011;9485;49.386;8.674;2023-04-24T07:08:24;3.20;;;2.70;;
18711;SDS011;9485;49.386;8.674;2023-04-24T07:13:45;3.47;;;2.57;;
18711;SDS011;9485;49.386;8.674;2023-04-24T07:19:07;1.83;;;1.70;;
18711;SDS011;9485;49.386;8.674;2023-04-24T07:24:28;1.60;;;1.50;;
18711;SDS011;9485;49.386;8.674;2023-04-24T07:29:51;2.13;;;1.37;;
18711;SDS011;9485;49.386;8.674;2023-04-24T07:35:13;1.90;;;1.60;;
18711;SDS011;9485;49.386;8.674;2023-04-24T07:40:34;1.90;;;1.80;;
18711;SDS011;9485;49.386;8.674;2023-04-24T07:45:55;2.27;;;2.00;;
18711;SDS011;9485;49.386;8.674;2023-04-24T07:51:17;1.57;;;1.47;;
18711;SDS011;9485;49.386;8.674;2023-04-24T07:56:38;1.73;;;1.63;;
18711;SDS011;9485;49.386;8.674;2023-04-24T08:02:01;1.87;;;1.70;;
18711;SDS011;9485;49.386;8.674;2023-04-24T08:07:24;2.20;;;2.00;;
18711;SDS011;9485;49.386;8.674;2023-04-24T08:12:44;2.10;;;2.00;;
18711;SDS011;9485;49.386;8.674;2023-04-24T08:18:05;4.33;;;2.13;;
18711;SDS011;9485;49.386;8.674;2023-04-24T08:23:28;3.10;;;2.40;;
18711;SDS011;9485;49.386;8.674;2023-04-24T08:28:49;2.07;;;1.90;;
18711;SDS011;9485;49.386;8.674;2023-04-24T08:34:10;2.00;;;1.80;;
18711;SDS011;9485;49.386;8.674;2023-04-24T08:39:32;1.43;;;1.33;;
18711;SDS011;9485;49.386;8.674;2023-04-24T08:44:53;1.80;;;1.70;;
18711;SDS011;9485;49.386;8.674;2023-04-24T08:50:15;2.47;;;1.60;;
18711;SDS011;9485;49.386;8.674;2023-04-24T08:55:38;2.03;;;1.40;;
18711;SDS011;9485;49.386;8.674;2023-04-24T09:01:02;1.70;;;1.60;;
18711;SDS011;9485;49.386;8.674;2023-04-24T09:06:24;2.30;;;1.60;;
18711;SDS011;9485;49.386;8.674;2023-04-24T09:11:48;1.60;;;1.47;;
18711;SDS011;9485;49.386;8.674;2023-04-24T09:17:12;1.70;;;1.60;;
18711;SDS011;9485;49.386;8.674;2023-04-24T09:22:34;2.13;;;1.90;;
18711;SDS011;9485;49.386;8.674;2023-04-24T09:27:59;4.33;;;2.10;;
18711;SDS011;9485;49.386;8.674;2023-04-24T09:33:21;2.33;;;1.70;;
18711;SDS011;9485;49.386;8.674;2023-04-24T09:38:42;2.23;;;1.90;;
18711;SDS011;9485;49.386;8.674;2023-04-24T09:44:12;2.80;;;1.83;;
18711;SDS011;9485;49.386;8.674;2023-04-24T09:49:35;1.67;;;1.50;;
18711;SDS011;9485;49.386;8.674;2023-04-24T09:54:58;1.40;;;1.30;;
18711;SDS011;9485;49.386;8.674;2023-04-24T10:00:23;5.40;;;2.20;;
18711;SDS011;9485;49.386;8.674;2023-04-24T10:05:46;2.30;;;2.10;;
18711;SDS011;9485;49.386;8.674;2023-04-24T10:11:07;4.27;;;2.43;;
18711;SDS011;9485;49.386;8.674;2023-04-24T10:16:31;2.50;;;2.30;;
18711;SDS011;9485;49.386;8.674;2023-04-24T10:21:52;2.60;;;2.40;;
18711;SDS011;9485;49.386;8.674;2023-04-24T10:27:14;2.90;;;2.50;;
18711;SDS011;9485;49.386;8.674;2023-04-24T10:32:39;2.50;;;2.30;;
18711;SDS011;9485;49.386;8.674;2023-04-24T10:38:01;4.03;;;2.20;;
18711;SDS011;9485;49.386;8.674;2023-04-24T10:43:26;1.97;;;1.87;;
18711;SDS011;9485;49.386;8.674;2023-04-24T10:48:53;2.00;;;1.80;;
18711;SDS011;9485;49.386;8.674;2023-04-24T10:54:24;2.30;;;1.80;;
18711;SDS011;9485;49.386;8.674;2023-04-24T10:59:47;2.43;;;2.20;;
18711;SDS011;9485;49.386;8.674;2023-04-24T11:05:52;3.17;;;2.40;;
18711;SDS011;9485;49.386;8.674;2023-04-24T11:11:18;3.10;;;2.50;;
18711;SDS011;9485;49.386;8.674;2023-04-24T11:16:44;4.23;;;3.00;;
18711;SDS011;9485;49.386;8.674;2023-04-24T11:22:15;4.77;;;3.43;;
18711;SDS011;9485;49.386;8.674;2023-04-24T11:27:41;3.03;;;2.73;;
18711;SDS011;9485;49.386;8.674;2023-04-24T11:33:05;3.47;;;2.60;;
18711;SDS011;9485;49.386;8.674;2023-04-24T11:38:27;2.90;;;2.57;;
18711;SDS011;9485;49.386;8.674;2023-04-24T11:43:48;3.17;;;2.33;;
18711;SDS011;9485;49.386;8.674;2023-04-24T11:49:11;4.67;;;3.30;;
18711;SDS011;9485;49.386;8.674;2023-04-24T11:54:33;4.13;;;3.37;;
18711;SDS011;9485;49.386;8.674;2023-04-24T11:59:54;4.07;;;3.13;;
18711;SDS011;9485;49.386;8.674;2023-04-24T12:05:19;3.70;;;2.90;;
18711;SDS011;9485;49.386;8.674;2023-04-24T12:10:41;2.63;;;2.43;;
18711;SDS011;9485;49.386;8.674;2023-04-24T12:16:03;3.80;;;3.00;;
18711;SDS011;9485;49.386;8.674;2023-04-24T12:21:25;2.97;;;2.67;;
18711;SDS011;9485;49.386;8.674;2023-04-24T12:26:50;4.83;;;2.63;;
18711;SDS011;9485;49.386;8.674;2023-04-24T12:32:15;3.87;;;2.80;;
18711;SDS011;9485;49.386;8.674;2023-04-24T12:37:36;2.90;;;2.70;;
18711;SDS011;9485;49.386;8.674;2023-04-24T12:43:02;3.50;;;2.87;;
18711;SDS011;9485;49.386;8.674;2023-04-24T12:48:35;4.50;;;3.20;;
18711;SDS011;9485;49.386;8.674;2023-04-24T12:53:56;4.93;;;3.17;;
18711;SDS011;9485;49.386;8.674;2023-04-24T12:59:21;4.17;;;2.83;;
18711;SDS011;9485;49.386;8.674;2023-04-24T13:04:41;3.00;;;2.57;;
18711;SDS011;9485;49.386;8.674;2023-04-24T13:10:03;3.33;;;2.50;;
18711;SDS011;9485;49.386;8.674;2023-04-24T13:15:28;2.93;;;2.40;;
18711;SDS011;9485;49.386;8.674;2023-04-24T13:20:49;4.43;;;2.60;;
18711;SDS011;9485;49.386;8.674;2023-04-24T13:26:10;3.75;;;2.60;;
18711;SDS011;9485;49.386;8.674;2023-04-24T13:31:32;4.27;;;2.80;;
18711;SDS011;9485;49.386;8.674;2023-04-24T13:36:53;2.50;;;2.30;;
18711;SDS011;9485;49.386;8.674;2023-04-24T13:42:17;2.80;;;2.42;;
18711;SDS011;9485;49.386;8.674;2023-04-24T13:47:40;2.78;;;2.53;;
18711;SDS011;9485;49.386;8.674;2023-04-24T13:53:01;2.97;;;2.78;;
18711;SDS011;9485;49.386;8.674;2023-04-24T13:58:22;2.80;;;2.45;;
18711;SDS011;9485;49.386;8.674;2023-04-24T14:03:44;3.15;;;2.30;;
18711;SDS011;9485;49.386;8.674;2023-04-24T14:09:05;2.38;;;2.20;;
18711;SDS011;9485;49.386;8.674;2023-04-24T14:14:26;3.47;;;2.57;;
18711;SDS011;9485;49.386;8.674;2023-04-24T14:19:49;4.17;;;2.80;;
18711;SDS011;9485;49.386;8.674;2023-04-24T14:25:10;2.50;;;2.30;;
18711;SDS011;9485;49.386;8.674;2023-04-24T14:30:31;7.93;;;2.90;;
18711;SDS011;9485;49.386;8.674;2023-04-24T14:35:53;3.33;;;2.20;;
18711;SDS011;9485;49.386;8.674;2023-04-24T14:41:14;2.30;;;2.10;;
18711;SDS011;9485;49.386;8.674;2023-04-24T14:46:36;2.33;;;2.13;;
18711;SDS011;9485;49.386;8.674;2023-04-24T14:51:58;2.47;;;2.27;;
18711;SDS011;9485;49.386;8.674;2023-04-24T14:57:21;3.67;;;2.30;;
18711;SDS011;9485;49.386;8.674;2023-04-24T15:02:42;3.20;;;2.90;;
18711;SDS011;9485;49.386;8.674;2023-04-24T15:08:08;4.00;;;2.70;;
18711;SDS011;9485;49.386;8.674;2023-04-24T15:13:31;3.73;;;3.17;;
18711;SDS011;9485;49.386;8.674;2023-04-24T15:18:52;2.93;;;2.63;;
18711;SDS011;9485;49.386;8.674;2023-04-24T15:24:14;2.63;;;2.43;;
18711;SDS011;9485;49.386;8.674;2023-04-24T15:29:34;3.03;;;2.63;;
18711;SDS011;9485;49.386;8.674;2023-04-24T15:34:55;3.23;;;2.20;;
18711;SDS011;9485;49.386;8.674;2023-04-24T15:40:17;2.97;;;2.53;;
18711;SDS011;9485;49.386;8.674;2023-04-24T15:45:38;2.97;;;2.57;;
18711;SDS011;9485;49.386;8.674;2023-04-24T15:50:58;3.17;;;2.87;;
18711;SDS011;9485;49.386;8.674;2023-04-24T15:56:21;3.63;;;2.90;;
18711;SDS011;9485;49.386;8.674;2023-04-24T16:01:41;2.70;;;2.50;;
18711;SDS011;9485;49.386;8.674;2023-04-24T16:07:02;3.10;;;2.77;;
18711;SDS011;9485;49.386;8.674;2023-04-24T16:12:24;2.83;;;2.53;;
18711;SDS011;9485;49.386;8.674;2023-04-24T16:17:45;2.30;;;2.10;;
18711;SDS011;9485;49.386;8.674;2023-04-24T16:23:06;3.03;;;2.77;;
18711;SDS011;9485;49.386;8.674;2023-04-24T16:28:29;2.00;;;1.80;;
18711;SDS011;9485;49.386;8.674;2023-04-24T16:33:49;2.73;;;1.73;;
18711;SDS011;9485;49.386;8.674;2023-04-24T16:39:09;1.90;;;1.80;;
18711;SDS011;9485;49.386;8.674;2023-04-24T16:44:34;1.93;;;1.83;;
18711;SDS011;9485;49.386;8.674;2023-04-24T16:49:57;3.23;;;2.17;;
18711;SDS011;9485;49.386;8.674;2023-04-24T16:55:18;2.37;;;2.03;;
18711;SDS011;9485;49.386;8.674;2023-04-24T17:00:40;2.47;;;2.27;;
18711;SDS011;9485;49.386;8.674;2023-04-24T17:06:00;3.27;;;2.40;;
18711;SDS011;9485;49.386;8.674;2023-04-24T17:11:21;2.30;;;2.10;;
18711;SDS011;9485;49.386;8.674;2023-04-24T17:16:43;2.57;;;1.90;;
18711;SDS011;9485;49.386;8.674;2023-04-24T17:22:04;2.30;;;2.17;;
18711;SDS011;9485;49.386;8.674;2023-04-24T17:27:24;2.40;;;2.20;;
18711;SDS011;9485;49.386;8.674;2023-04-24T17:32:46;2.57;;;2.27;;
18711;SDS011;9485;49.386;8.674;2023-04-24T17:38:07;2.33;;;2.13;;
18711;SDS011;9485;49.386;8.674;2023-04-24T17:43:28;3.33;;;2.53;;
18711;SDS011;9485;49.386;8.674;2023-04-24T17:48:49;2.70;;;2.50;;
18711;SDS011;9485;49.386;8.674;2023-04-24T17:54:10;3.17;;;2.70;;
18711;SDS011;9485;49.386;8.674;2023-04-24T17:59:31;3.53;;;3.23;;
18711;SDS011;9485;49.386;8.674;2023-04-24T18:04:55;4.10;;;3.30;;
18711;SDS011;9485;49.386;8.674;2023-04-24T18:10:16;4.77;;;3.33;;
18711;SDS011;9485;49.386;8.674;2023-04-24T18:15:37;3.23;;;2.90;;
18711;SDS011;9485;49.386;8.674;2023-04-24T18:21:02;2.63;;;2.40;;
18711;SDS011;9485;49.386;8.674;2023-04-24T18:26:24;2.57;;;2.37;;
18711;SDS011;9485;49.386;8.674;2023-04-24T18:31:45;2.93;;;2.20;;
18711;SDS011;9485;49.386;8.674;2023-04-24T18:37:08;2.50;;;2.30;;
18711;SDS011;9485;49.386;8.674;2023-04-24T18:42:29;2.70;;;2.03;;
18711;SDS011;9485;49.386;8.674;2023-04-24T18:47:49;2.67;;;2.33;;
18711;SDS011;9485;49.386;8.674;2023-04-24T18:53:11;2.17;;;1.97;;
18711;SDS011;9485;49.386;8.674;2023-04-24T18:58:34;2.63;;;1.90;;
18711;SDS011;9485;49.386;8.674;2023-04-24T19:03:55;3.77;;;2.47;;
18711;SDS011;9485;49.386;8.674;2023-04-24T19:09:17;3.33;;;2.40;;
18711;SDS011;9485;49.386;8.674;2023-04-24T19:14:38;3.67;;;2.20;;
18711;SDS011;9485;49.386;8.674;2023-04-24T19:19:58;2.27;;;2.07;;
18711;SDS011;9485;49.386;8.674;2023-04-24T19:25:21;1.97;;;1.80;;
18711;SDS011;9485;49.386;8.674;2023-04-24T19:30:42;2.10;;;2.00;;
18711;SDS011;9485;49.386;8.674;2023-04-24T19:36:02;3.30;;;2.40;;
18711;SDS011;9485;49.386;8.674;2023-04-24T19:41:25;2.40;;;2.07;;
18711;SDS011;9485;49.386;8.674;2023-04-24T19:46:46;3.23;;;2.60;;
18711;SDS011;9485;49.386;8.674;2023-04-24T19:52:06;3.60;;;2.70;;
18711;SDS011;9485;49.386;8.674;2023-04-24T19:57:28;2.90;;;2.70;;
18711;SDS011;9485;49.386;8.674;2023-04-24T20:02:49;4.03;;;3.27;;
18711;SDS011;9485;49.386;8.674;2023-04-24T20:08:09;3.30;;;2.80;;
18711;SDS011;9485;49.386;8.674;2023-04-24T20:13:32;3.30;;;2.90;;
18711;SDS011;9485;49.386;8.674;2023-04-24T20:18:53;2.70;;;2.50;;
18711;SDS011;9485;49.386;8.674;2023-04-24T20:24:13;3.03;;;2.57;;
18711;SDS011;9485;49.386;8.674;2023-04-24T20:29:35;2.77;;;2.53;;
18711;SDS011;9485;49.386;8.674;2023-04-24T20:34:55;3.50;;;3.20;;
18711;SDS011;9485;49.386;8.674;2023-04-24T20:40:16;3.60;;;3.07;;
18711;SDS011;9485;49.386;8.674;2023-04-24T20:45:38;3.20;;;2.60;;
18711;SDS011;9485;49.386;8.674;2023-04-24T20:50:59;3.17;;;2.60;;
18711;SDS011;9485;49.386;8.674;2023-04-24T20:56:20;3.00;;;2.67;;
18711;SDS011;9485;49.386;8.674;2023-04-24T21:01:43;2.77;;;2.43;;
18711;SDS011;9485;49.386;8.674;2023-04-24T21:07:06;2.57;;;2.20;;
18711;SDS011;9485;49.386;8.674;2023-04-24T21:12:27;2.27;;;2.07;;
18711;SDS011;9485;49.386;8.674;2023-04-24T21:17:48;2.47;;;2.23;;
18711;SDS011;9485;49.386;8.674;2023-04-24T21:23:09;2.97;;;2.03;;
18711;SDS011;9485;49.386;8.674;2023-04-24T21:28:30;2.37;;;2.17;;
18711;SDS011;9485;49.386;8.674;2023-04-24T21:33:52;2.00;;;1.80;;
18711;SDS011;9485;49.386;8.674;2023-04-24T21:39:12;2.00;;;1.70;;
18711;SDS011;9485;49.386;8.674;2023-04-24T21:44:33;2.57;;;2.07;;
18711;SDS011;9485;49.386;8.674;2023-04-24T21:49:55;2.10;;;1.90;;
18711;SDS011;9485;49.386;8.674;2023-04-24T21:55:15;2.80;;;2.50;;
18711;SDS011;9485;49.386;8.674;2023-04-24T22:00:36;2.30;;;2.10;;
18711;SDS011;9485;49.386;8.674;2023-04-24T22:05:59;2.93;;;2.17;;
18711;SDS011;9485;49.386;8.674;2023-04-24T22:11:19;3.37;;;2.60;;
18711;SDS011;9485;49.386;8.674;2023-04-24T22:16:40;3.13;;;2.50;;
18711;SDS011;9485;49.386;8.674;2023-04-24T22:22:03;4.93;;;2.67;;
18711;SDS011;9485;49.386;8.674;2023-04-24T22:27:23;3.00;;;2.60;;
18711;SDS011;9485;49.386;8.674;2023-04-24T22:32:44;3.60;;;2.53;;
18711;SDS011;9485;49.386;8.674;2023-04-24T22:38:06;2.60;;;2.40;;
18711;SDS011;9485;49.386;8.674;2023-04-24T22:43:26;2.73;;;2.53;;
18711;SDS011;9485;49.386;8.674;2023-04-24T22:48:47;3.33;;;2.90;;
18711;SDS011;9485;49.386;8.674;2023-04-24T22:54:09;3.47;;;3.00;;
18711;SDS011;9485;49.386;8.674;2023-04-24T22:59:30;3.27;;;2.97;;
18711;SDS011;9485;49.386;8.674;2023-04-24T23:04:50;4.20;;;3.20;;
18711;SDS011;9485;49.386;8.674;2023-04-24T23:10:13;3.20;;;2.90;;
18711;SDS011;9485;49.386;8.674;2023-04-24T23:15:34;3.73;;;3.00;;
18711;SDS011;9485;49.386;8.674;2023-04-24T23:20:56;3.53;;;3.23;;
18711;SDS011;9485;49.386;8.674;2023-04-24T23:26:21;3.40;;;2.87;;
18711;SDS011;9485;49.386;8.674;2023-04-24T23:31:41;4.17;;;2.90;;
18711;SDS011;9485;49.386;8.674;2023-04-24T23:37:02;3.53;;;3.07;;
18711;SDS011;9485;49.386;8.674;2023-04-24T23:42:24;4.20;;;3.50;;
18711;SDS011;9485;49.386;8.674;2023-04-24T23:47:44;3.70;;;3.30;;
18711;SDS011;9485;49.386;8.674;2023-04-24T23:53:05;3.30;;;3.00;;
18711;SDS011;9485;49.386;8.674;2023-04-24T23:58:27;3.53;;;3.17;;
